sensor_id;sensor_type;location;lat;lon;timestamp;P1;durP1;ratioP1;P2;durP2;ratioP2
5999;SDS011;3028;49.468;7.694;2023-05-10T00:00:59;2.58;;;1.65;;
5999;SDS011;3028;49.468;7.694;2023-05-10T00:03:01;2.63;;;1.48;;
5999;SDS011;3028;49.468;7.694;2023-05-10T00:05:03;1.25;;;1.20;;
5999;SDS011;3028;49.468;7.694;2023-05-10T00:07:05;2.90;;;1.48;;
5999;SDS011;3028;49.468;7.694;2023-05-10T00:09:07;2.08;;;1.90;;
5999;SDS011;3028;49.468;7.694;2023-05-10T00:11:08;7.53;;;1.77;;
5999;SDS011;3028;49.468;7.694;2023-05-10T00:13:10;1.63;;;1.52;;
5999;SDS011;3028;49.468;7.694;2023-05-10T00:15:12;2.28;;;1.80;;
5999;SDS011;3028;49.468;7.694;2023-05-10T00:17:14;1.88;;;1.77;;
5999;SDS011;3028;49.468;7.694;2023-05-10T00:19:16;1.50;;;1.40;;
5999;SDS011;3028;49.468;7.694;2023-05-10T00:21:17;1.80;;;1.70;;
5999;SDS011;3028;49.468;7.694;2023-05-10T00:23:19;8.77;;;1.77;;
5999;SDS011;3028;49.468;7.694;2023-05-10T00:25:21;2.67;;;1.65;;
5999;SDS011;3028;49.468;7.694;2023-05-10T00:27:23;1.52;;;1.42;;
5999;SDS011;3028;49.468;7.694;2023-05-10T00:29:25;1.70;;;1.45;;
5999;SDS011;3028;49.468;7.694;2023-05-10T00:31:32;1.45;;;1.35;;
5999;SDS011;3028;49.468;7.694;2023-05-10T00:33:33;1.90;;;1.80;;
5999;SDS011;3028;49.468;7.694;2023-05-10T00:35:35;2.10;;;1.55;;
5999;SDS011;3028;49.468;7.694;2023-05-10T00:37:37;1.88;;;1.40;;
5999;SDS011;3028;49.468;7.694;2023-05-10T00:39:39;1.85;;;1.75;;
5999;SDS011;3028;49.468;7.694;2023-05-10T00:41:41;2.05;;;1.77;;
5999;SDS011;3028;49.468;7.694;2023-05-10T00:43:42;1.85;;;1.75;;
5999;SDS011;3028;49.468;7.694;2023-05-10T00:45:44;1.90;;;1.40;;
5999;SDS011;3028;49.468;7.694;2023-05-10T00:47:46;2.45;;;1.80;;
5999;SDS011;3028;49.468;7.694;2023-05-10T00:49:48;1.70;;;1.60;;
5999;SDS011;3028;49.468;7.694;2023-05-10T00:51:49;2.03;;;1.92;;
5999;SDS011;3028;49.468;7.694;2023-05-10T00:53:51;1.92;;;1.83;;
5999;SDS011;3028;49.468;7.694;2023-05-10T00:55:53;1.70;;;1.60;;
5999;SDS011;3028;49.468;7.694;2023-05-10T00:57:55;1.92;;;1.83;;
5999;SDS011;3028;49.468;7.694;2023-05-10T00:59:57;1.75;;;1.58;;
5999;SDS011;3028;49.468;7.694;2023-05-10T01:01:59;1.90;;;1.80;;
5999;SDS011;3028;49.468;7.694;2023-05-10T01:04:01;1.92;;;1.83;;
5999;SDS011;3028;49.468;7.694;2023-05-10T01:06:04;2.35;;;1.77;;
5999;SDS011;3028;49.468;7.694;2023-05-10T01:08:06;1.77;;;1.60;;
5999;SDS011;3028;49.468;7.694;2023-05-10T01:10:10;2.50;;;2.40;;
5999;SDS011;3028;49.468;7.694;2023-05-10T01:12:12;2.40;;;2.17;;
5999;SDS011;3028;49.468;7.694;2023-05-10T01:14:14;3.60;;;3.40;;
5999;SDS011;3028;49.468;7.694;2023-05-10T01:16:16;3.42;;;2.40;;
5999;SDS011;3028;49.468;7.694;2023-05-10T01:18:18;3.38;;;2.70;;
5999;SDS011;3028;49.468;7.694;2023-05-10T01:20:21;2.95;;;2.30;;
5999;SDS011;3028;49.468;7.694;2023-05-10T01:34:42;3.70;;;2.38;;
5999;SDS011;3028;49.468;7.694;2023-05-10T01:36:58;2.83;;;2.53;;
5999;SDS011;3028;49.468;7.694;2023-05-10T01:48:11;2.35;;;2.13;;
5999;SDS011;3028;49.468;7.694;2023-05-10T01:50:17;4.78;;;2.20;;
5999;SDS011;3028;49.468;7.694;2023-05-10T01:52:23;2.83;;;2.63;;
5999;SDS011;3028;49.468;7.694;2023-05-10T01:54:28;2.60;;;2.50;;
5999;SDS011;3028;49.468;7.694;2023-05-10T01:56:30;3.03;;;2.83;;
5999;SDS011;3028;49.468;7.694;2023-05-10T01:58:33;3.22;;;2.90;;
5999;SDS011;3028;49.468;7.694;2023-05-10T02:00:36;2.83;;;2.63;;
5999;SDS011;3028;49.468;7.694;2023-05-10T02:02:44;2.50;;;2.30;;
5999;SDS011;3028;49.468;7.694;2023-05-10T02:04:47;2.75;;;2.55;;
5999;SDS011;3028;49.468;7.694;2023-05-10T02:06:51;4.35;;;2.40;;
5999;SDS011;3028;49.468;7.694;2023-05-10T02:08:54;3.30;;;3.00;;
5999;SDS011;3028;49.468;7.694;2023-05-10T02:10:56;2.33;;;2.22;;
5999;SDS011;3028;49.468;7.694;2023-05-10T02:12:58;2.65;;;2.08;;
5999;SDS011;3028;49.468;7.694;2023-05-10T02:15:01;2.08;;;1.98;;
5999;SDS011;3028;49.468;7.694;2023-05-10T02:17:05;2.83;;;2.63;;
5999;SDS011;3028;49.468;7.694;2023-05-10T02:19:07;2.10;;;2.00;;
5999;SDS011;3028;49.468;7.694;2023-05-10T02:21:10;2.47;;;2.25;;
5999;SDS011;3028;49.468;7.694;2023-05-10T02:23:12;2.70;;;2.50;;
5999;SDS011;3028;49.468;7.694;2023-05-10T02:25:15;3.13;;;2.92;;
5999;SDS011;3028;49.468;7.694;2023-05-10T02:27:17;3.10;;;2.90;;
5999;SDS011;3028;49.468;7.694;2023-05-10T02:29:19;2.65;;;2.00;;
5999;SDS011;3028;49.468;7.694;2023-05-10T02:31:21;2.45;;;2.30;;
5999;SDS011;3028;49.468;7.694;2023-05-10T02:33:23;2.97;;;2.67;;
5999;SDS011;3028;49.468;7.694;2023-05-10T02:35:26;2.72;;;2.53;;
5999;SDS011;3028;49.468;7.694;2023-05-10T02:37:28;2.70;;;2.50;;
5999;SDS011;3028;49.468;7.694;2023-05-10T02:39:30;2.83;;;2.63;;
5999;SDS011;3028;49.468;7.694;2023-05-10T02:41:33;2.92;;;2.72;;
5999;SDS011;3028;49.468;7.694;2023-05-10T02:43:35;2.95;;;2.75;;
5999;SDS011;3028;49.468;7.694;2023-05-10T02:45:37;3.63;;;2.70;;
5999;SDS011;3028;49.468;7.694;2023-05-10T02:47:40;2.90;;;2.70;;
5999;SDS011;3028;49.468;7.694;2023-05-10T02:49:42;3.63;;;3.42;;
5999;SDS011;3028;49.468;7.694;2023-05-10T02:51:46;3.35;;;3.15;;
5999;SDS011;3028;49.468;7.694;2023-05-10T02:53:51;4.13;;;3.90;;
5999;SDS011;3028;49.468;7.694;2023-05-10T02:56:13;3.05;;;2.83;;
5999;SDS011;3028;49.468;7.694;2023-05-10T02:58:17;3.42;;;3.13;;
5999;SDS011;3028;49.468;7.694;2023-05-10T03:00:20;4.00;;;3.78;;
5999;SDS011;3028;49.468;7.694;2023-05-10T03:02:22;3.35;;;2.80;;
5999;SDS011;3028;49.468;7.694;2023-05-10T03:04:28;4.75;;;2.97;;
5999;SDS011;3028;49.468;7.694;2023-05-10T03:06:33;4.03;;;3.72;;
5999;SDS011;3028;49.468;7.694;2023-05-10T03:08:34;3.22;;;3.03;;
5999;SDS011;3028;49.468;7.694;2023-05-10T03:10:38;4.75;;;3.38;;
5999;SDS011;3028;49.468;7.694;2023-05-10T03:12:58;3.60;;;3.30;;
5999;SDS011;3028;49.468;7.694;2023-05-10T03:15:17;3.15;;;2.95;;
5999;SDS011;3028;49.468;7.694;2023-05-10T03:20:16;2.92;;;2.72;;
5999;SDS011;3028;49.468;7.694;2023-05-10T03:22:31;4.55;;;3.17;;
5999;SDS011;3028;49.468;7.694;2023-05-10T03:24:36;3.97;;;3.67;;
5999;SDS011;3028;49.468;7.694;2023-05-10T03:26:38;3.67;;;3.30;;
5999;SDS011;3028;49.468;7.694;2023-05-10T03:28:40;4.40;;;2.97;;
5999;SDS011;3028;49.468;7.694;2023-05-10T03:30:43;4.20;;;3.80;;
5999;SDS011;3028;49.468;7.694;2023-05-10T03:32:45;4.60;;;3.67;;
5999;SDS011;3028;49.468;7.694;2023-05-10T03:34:47;3.70;;;3.50;;
5999;SDS011;3028;49.468;7.694;2023-05-10T03:36:49;2.58;;;2.38;;
5999;SDS011;3028;49.468;7.694;2023-05-10T03:38:51;3.97;;;3.25;;
5999;SDS011;3028;49.468;7.694;2023-05-10T03:40:52;4.60;;;3.67;;
5999;SDS011;3028;49.468;7.694;2023-05-10T03:42:55;4.60;;;4.30;;
5999;SDS011;3028;49.468;7.694;2023-05-10T03:44:56;4.47;;;4.07;;
5999;SDS011;3028;49.468;7.694;2023-05-10T03:46:58;8.05;;;4.35;;
5999;SDS011;3028;49.468;7.694;2023-05-10T03:49:00;4.60;;;4.30;;
5999;SDS011;3028;49.468;7.694;2023-05-10T03:51:02;4.15;;;3.83;;
5999;SDS011;3028;49.468;7.694;2023-05-10T03:53:04;4.47;;;4.22;;
5999;SDS011;3028;49.468;7.694;2023-05-10T03:55:06;6.03;;;5.15;;
5999;SDS011;3028;49.468;7.694;2023-05-10T03:57:09;3.75;;;3.55;;
5999;SDS011;3028;49.468;7.694;2023-05-10T03:59:12;4.53;;;4.22;;
5999;SDS011;3028;49.468;7.694;2023-05-10T04:01:14;3.95;;;3.72;;
5999;SDS011;3028;49.468;7.694;2023-05-10T04:03:16;4.13;;;3.88;;
5999;SDS011;3028;49.468;7.694;2023-05-10T04:05:18;4.85;;;4.55;;
5999;SDS011;3028;49.468;7.694;2023-05-10T04:07:20;4.93;;;4.38;;
5999;SDS011;3028;49.468;7.694;2023-05-10T04:09:22;4.28;;;3.97;;
5999;SDS011;3028;49.468;7.694;2023-05-10T04:11:28;4.63;;;4.28;;
5999;SDS011;3028;49.468;7.694;2023-05-10T04:13:31;4.25;;;3.95;;
5999;SDS011;3028;49.468;7.694;2023-05-10T04:15:33;4.97;;;4.53;;
5999;SDS011;3028;49.468;7.694;2023-05-10T04:17:35;4.90;;;4.43;;
5999;SDS011;3028;49.468;7.694;2023-05-10T04:19:37;3.38;;;3.13;;
5999;SDS011;3028;49.468;7.694;2023-05-10T04:21:41;3.80;;;3.60;;
5999;SDS011;3028;49.468;7.694;2023-05-10T04:23:42;4.38;;;4.00;;
5999;SDS011;3028;49.468;7.694;2023-05-10T04:25:45;4.57;;;4.18;;
5999;SDS011;3028;49.468;7.694;2023-05-10T04:27:47;3.90;;;3.60;;
5999;SDS011;3028;49.468;7.694;2023-05-10T04:29:48;4.05;;;3.75;;
5999;SDS011;3028;49.468;7.694;2023-05-10T04:31:50;3.15;;;2.95;;
5999;SDS011;3028;49.468;7.694;2023-05-10T04:33:52;3.72;;;3.42;;
5999;SDS011;3028;49.468;7.694;2023-05-10T04:35:54;3.83;;;3.53;;
5999;SDS011;3028;49.468;7.694;2023-05-10T04:37:56;2.97;;;2.63;;
5999;SDS011;3028;49.468;7.694;2023-05-10T04:39:58;3.60;;;2.88;;
5999;SDS011;3028;49.468;7.694;2023-05-10T04:42:02;2.72;;;2.50;;
5999;SDS011;3028;49.468;7.694;2023-05-10T04:44:04;3.05;;;2.15;;
5999;SDS011;3028;49.468;7.694;2023-05-10T04:46:06;4.30;;;2.13;;
5999;SDS011;3028;49.468;7.694;2023-05-10T04:48:11;2.15;;;1.60;;
5999;SDS011;3028;49.468;7.694;2023-05-10T04:50:12;2.30;;;1.90;;
5999;SDS011;3028;49.468;7.694;2023-05-10T04:52:15;1.92;;;1.80;;
5999;SDS011;3028;49.468;7.694;2023-05-10T04:54:18;2.05;;;1.80;;
5999;SDS011;3028;49.468;7.694;2023-05-10T04:56:20;2.00;;;1.90;;
5999;SDS011;3028;49.468;7.694;2023-05-10T04:58:23;2.17;;;2.08;;
5999;SDS011;3028;49.468;7.694;2023-05-10T05:00:25;2.25;;;2.05;;
5999;SDS011;3028;49.468;7.694;2023-05-10T05:02:27;2.35;;;2.15;;
5999;SDS011;3028;49.468;7.694;2023-05-10T05:04:29;5.43;;;1.50;;
5999;SDS011;3028;49.468;7.694;2023-05-10T05:06:31;2.20;;;2.00;;
5999;SDS011;3028;49.468;7.694;2023-05-10T05:08:33;1.75;;;1.65;;
5999;SDS011;3028;49.468;7.694;2023-05-10T05:10:41;3.17;;;1.88;;
5999;SDS011;3028;49.468;7.694;2023-05-10T05:12:43;2.92;;;1.83;;
5999;SDS011;3028;49.468;7.694;2023-05-10T05:14:45;1.60;;;1.50;;
5999;SDS011;3028;49.468;7.694;2023-05-10T05:16:47;1.92;;;1.77;;
5999;SDS011;3028;49.468;7.694;2023-05-10T05:18:49;2.55;;;1.85;;
5999;SDS011;3028;49.468;7.694;2023-05-10T05:20:51;2.30;;;2.20;;
5999;SDS011;3028;49.468;7.694;2023-05-10T05:22:54;4.40;;;2.50;;
5999;SDS011;3028;49.468;7.694;2023-05-10T05:24:56;3.13;;;2.83;;
5999;SDS011;3028;49.468;7.694;2023-05-10T05:26:59;2.58;;;2.38;;
5999;SDS011;3028;49.468;7.694;2023-05-10T05:29:03;2.50;;;2.30;;
5999;SDS011;3028;49.468;7.694;2023-05-10T05:31:06;3.95;;;2.72;;
5999;SDS011;3028;49.468;7.694;2023-05-10T05:33:12;9.00;;;2.65;;
5999;SDS011;3028;49.468;7.694;2023-05-10T05:35:17;2.85;;;2.20;;
5999;SDS011;3028;49.468;7.694;2023-05-10T05:37:21;3.45;;;2.47;;
5999;SDS011;3028;49.468;7.694;2023-05-10T05:39:24;3.50;;;2.40;;
5999;SDS011;3028;49.468;7.694;2023-05-10T05:41:26;23.75;;;3.72;;
5999;SDS011;3028;49.468;7.694;2023-05-10T05:43:28;2.17;;;2.03;;
5999;SDS011;3028;49.468;7.694;2023-05-10T05:45:30;2.38;;;2.28;;
5999;SDS011;3028;49.468;7.694;2023-05-10T05:47:32;2.53;;;2.33;;
5999;SDS011;3028;49.468;7.694;2023-05-10T05:49:34;4.55;;;2.47;;
5999;SDS011;3028;49.468;7.694;2023-05-10T05:51:38;3.42;;;2.30;;
5999;SDS011;3028;49.468;7.694;2023-05-10T05:53:41;4.70;;;2.25;;
5999;SDS011;3028;49.468;7.694;2023-05-10T05:55:53;2.70;;;2.50;;
5999;SDS011;3028;49.468;7.694;2023-05-10T05:57:56;1.95;;;1.85;;
5999;SDS011;3028;49.468;7.694;2023-05-10T05:59:59;3.05;;;2.42;;
5999;SDS011;3028;49.468;7.694;2023-05-10T06:02:01;2.67;;;2.35;;
5999;SDS011;3028;49.468;7.694;2023-05-10T06:04:03;3.33;;;3.13;;
5999;SDS011;3028;49.468;7.694;2023-05-10T06:06:10;2.72;;;2.47;;
5999;SDS011;3028;49.468;7.694;2023-05-10T06:08:11;3.05;;;2.72;;
5999;SDS011;3028;49.468;7.694;2023-05-10T06:10:14;2.40;;;2.28;;
5999;SDS011;3028;49.468;7.694;2023-05-10T06:12:16;3.85;;;2.10;;
5999;SDS011;3028;49.468;7.694;2023-05-10T06:14:20;2.22;;;1.90;;
5999;SDS011;3028;49.468;7.694;2023-05-10T06:16:22;3.17;;;2.40;;
5999;SDS011;3028;49.468;7.694;2023-05-10T06:18:24;1.60;;;1.50;;
5999;SDS011;3028;49.468;7.694;2023-05-10T06:20:26;2.42;;;2.22;;
5999;SDS011;3028;49.468;7.694;2023-05-10T06:22:28;1.50;;;1.40;;
5999;SDS011;3028;49.468;7.694;2023-05-10T06:24:31;2.15;;;1.80;;
5999;SDS011;3028;49.468;7.694;2023-05-10T06:26:33;1.65;;;1.50;;
5999;SDS011;3028;49.468;7.694;2023-05-10T06:28:35;1.90;;;1.80;;
5999;SDS011;3028;49.468;7.694;2023-05-10T06:30:39;1.38;;;1.27;;
5999;SDS011;3028;49.468;7.694;2023-05-10T06:32:42;1.98;;;1.88;;
5999;SDS011;3028;49.468;7.694;2023-05-10T06:34:46;1.55;;;1.42;;
5999;SDS011;3028;49.468;7.694;2023-05-10T06:36:49;2.67;;;1.23;;
5999;SDS011;3028;49.468;7.694;2023-05-10T06:38:51;1.17;;;1.08;;
5999;SDS011;3028;49.468;7.694;2023-05-10T06:40:53;1.48;;;1.15;;
5999;SDS011;3028;49.468;7.694;2023-05-10T06:42:56;1.45;;;1.35;;
5999;SDS011;3028;49.468;7.694;2023-05-10T06:45:01;2.78;;;1.02;;
5999;SDS011;3028;49.468;7.694;2023-05-10T06:47:03;1.33;;;1.20;;
5999;SDS011;3028;49.468;7.694;2023-05-10T06:49:06;0.95;;;0.85;;
5999;SDS011;3028;49.468;7.694;2023-05-10T06:51:08;2.40;;;1.30;;
5999;SDS011;3028;49.468;7.694;2023-05-10T06:53:10;1.23;;;1.10;;
5999;SDS011;3028;49.468;7.694;2023-05-10T06:55:13;1.20;;;1.10;;
5999;SDS011;3028;49.468;7.694;2023-05-10T06:57:15;1.95;;;1.52;;
5999;SDS011;3028;49.468;7.694;2023-05-10T06:59:32;1.88;;;1.27;;
5999;SDS011;3028;49.468;7.694;2023-05-10T07:01:34;1.30;;;1.20;;
5999;SDS011;3028;49.468;7.694;2023-05-10T07:03:36;1.30;;;1.20;;
5999;SDS011;3028;49.468;7.694;2023-05-10T07:05:38;1.70;;;1.50;;
5999;SDS011;3028;49.468;7.694;2023-05-10T07:07:40;2.17;;;2.00;;
5999;SDS011;3028;49.468;7.694;2023-05-10T07:09:42;1.85;;;1.52;;
5999;SDS011;3028;49.468;7.694;2023-05-10T07:11:44;1.40;;;1.30;;
5999;SDS011;3028;49.468;7.694;2023-05-10T07:13:45;1.65;;;1.55;;
5999;SDS011;3028;49.468;7.694;2023-05-10T07:15:47;6.43;;;1.77;;
5999;SDS011;3028;49.468;7.694;2023-05-10T07:17:49;1.23;;;1.20;;
5999;SDS011;3028;49.468;7.694;2023-05-10T07:19:51;2.13;;;1.80;;
5999;SDS011;3028;49.468;7.694;2023-05-10T07:21:53;2.60;;;1.15;;
5999;SDS011;3028;49.468;7.694;2023-05-10T07:23:55;1.80;;;1.70;;
5999;SDS011;3028;49.468;7.694;2023-05-10T07:25:57;3.90;;;2.65;;
5999;SDS011;3028;49.468;7.694;2023-05-10T07:27:58;1.77;;;1.45;;
5999;SDS011;3028;49.468;7.694;2023-05-10T07:30:00;1.92;;;1.40;;
5999;SDS011;3028;49.468;7.694;2023-05-10T07:32:02;1.95;;;1.50;;
5999;SDS011;3028;49.468;7.694;2023-05-10T07:34:04;1.80;;;1.70;;
5999;SDS011;3028;49.468;7.694;2023-05-10T07:36:06;1.50;;;1.27;;
5999;SDS011;3028;49.468;7.694;2023-05-10T07:38:08;6.05;;;1.20;;
5999;SDS011;3028;49.468;7.694;2023-05-10T07:40:12;2.35;;;1.58;;
5999;SDS011;3028;49.468;7.694;2023-05-10T07:42:14;1.65;;;1.30;;
5999;SDS011;3028;49.468;7.694;2023-05-10T07:44:16;2.20;;;1.33;;
5999;SDS011;3028;49.468;7.694;2023-05-10T07:46:20;1.08;;;1.00;;
5999;SDS011;3028;49.468;7.694;2023-05-10T07:48:22;4.35;;;1.42;;
5999;SDS011;3028;49.468;7.694;2023-05-10T07:50:24;1.40;;;1.30;;
5999;SDS011;3028;49.468;7.694;2023-05-10T07:52:26;1.15;;;1.00;;
5999;SDS011;3028;49.468;7.694;2023-05-10T07:54:28;1.25;;;0.90;;
5999;SDS011;3028;49.468;7.694;2023-05-10T07:56:30;1.08;;;0.70;;
5999;SDS011;3028;49.468;7.694;2023-05-10T07:58:33;3.13;;;1.08;;
5999;SDS011;3028;49.468;7.694;2023-05-10T08:00:34;0.70;;;0.70;;
5999;SDS011;3028;49.468;7.694;2023-05-10T08:02:36;3.00;;;1.00;;
5999;SDS011;3028;49.468;7.694;2023-05-10T08:04:38;1.02;;;1.02;;
5999;SDS011;3028;49.468;7.694;2023-05-10T08:06:40;0.90;;;0.90;;
5999;SDS011;3028;49.468;7.694;2023-05-10T08:08:42;1.40;;;1.23;;
5999;SDS011;3028;49.468;7.694;2023-05-10T08:10:48;0.77;;;0.75;;
5999;SDS011;3028;49.468;7.694;2023-05-10T08:12:51;1.20;;;1.10;;
5999;SDS011;3028;49.468;7.694;2023-05-10T08:14:52;0.93;;;0.80;;
5999;SDS011;3028;49.468;7.694;2023-05-10T08:16:54;1.13;;;1.00;;
5999;SDS011;3028;49.468;7.694;2023-05-10T08:18:56;0.77;;;0.77;;
5999;SDS011;3028;49.468;7.694;2023-05-10T08:20:58;1.65;;;1.00;;
5999;SDS011;3028;49.468;7.694;2023-05-10T08:23:00;3.20;;;1.30;;
5999;SDS011;3028;49.468;7.694;2023-05-10T08:25:02;4.95;;;0.90;;
5999;SDS011;3028;49.468;7.694;2023-05-10T08:27:07;0.70;;;0.70;;
5999;SDS011;3028;49.468;7.694;2023-05-10T08:29:09;1.02;;;0.85;;
5999;SDS011;3028;49.468;7.694;2023-05-10T08:31:11;0.77;;;0.73;;
5999;SDS011;3028;49.468;7.694;2023-05-10T08:33:13;2.10;;;0.90;;
5999;SDS011;3028;49.468;7.694;2023-05-10T08:35:15;2.78;;;1.35;;
5999;SDS011;3028;49.468;7.694;2023-05-10T08:37:17;1.17;;;1.00;;
5999;SDS011;3028;49.468;7.694;2023-05-10T08:39:19;1.15;;;1.05;;
5999;SDS011;3028;49.468;7.694;2023-05-10T08:41:31;1.48;;;1.00;;
5999;SDS011;3028;49.468;7.694;2023-05-10T08:43:34;2.70;;;0.98;;
5999;SDS011;3028;49.468;7.694;2023-05-10T08:45:38;1.23;;;1.02;;
5999;SDS011;3028;49.468;7.694;2023-05-10T08:47:40;0.93;;;0.90;;
5999;SDS011;3028;49.468;7.694;2023-05-10T08:49:42;1.65;;;1.35;;
5999;SDS011;3028;49.468;7.694;2023-05-10T08:51:47;1.90;;;1.30;;
5999;SDS011;3028;49.468;7.694;2023-05-10T08:53:52;2.78;;;1.30;;
5999;SDS011;3028;49.468;7.694;2023-05-10T08:55:54;1.50;;;1.02;;
5999;SDS011;3028;49.468;7.694;2023-05-10T08:57:56;1.77;;;1.27;;
5999;SDS011;3028;49.468;7.694;2023-05-10T08:59:59;0.90;;;0.90;;
5999;SDS011;3028;49.468;7.694;2023-05-10T09:02:02;0.80;;;0.80;;
5999;SDS011;3028;49.468;7.694;2023-05-10T09:04:05;0.90;;;0.90;;
5999;SDS011;3028;49.468;7.694;2023-05-10T09:06:07;1.33;;;0.90;;
5999;SDS011;3028;49.468;7.694;2023-05-10T09:08:09;1.30;;;1.25;;
5999;SDS011;3028;49.468;7.694;2023-05-10T09:10:13;2.13;;;1.13;;
5999;SDS011;3028;49.468;7.694;2023-05-10T09:12:15;0.95;;;0.95;;
5999;SDS011;3028;49.468;7.694;2023-05-10T09:14:17;0.95;;;0.88;;
5999;SDS011;3028;49.468;7.694;2023-05-10T09:16:20;2.13;;;1.02;;
5999;SDS011;3028;49.468;7.694;2023-05-10T09:18:22;1.00;;;1.00;;
5999;SDS011;3028;49.468;7.694;2023-05-10T09:20:30;1.27;;;1.00;;
5999;SDS011;3028;49.468;7.694;2023-05-10T09:22:35;2.03;;;0.80;;
5999;SDS011;3028;49.468;7.694;2023-05-10T09:24:37;1.30;;;0.80;;
5999;SDS011;3028;49.468;7.694;2023-05-10T09:26:47;3.60;;;0.95;;
5999;SDS011;3028;49.468;7.694;2023-05-10T09:28:53;1.00;;;0.85;;
5999;SDS011;3028;49.468;7.694;2023-05-10T09:30:58;0.65;;;0.65;;
5999;SDS011;3028;49.468;7.694;2023-05-10T09:33:12;2.38;;;0.77;;
5999;SDS011;3028;49.468;7.694;2023-05-10T09:35:18;0.50;;;0.50;;
5999;SDS011;3028;49.468;7.694;2023-05-10T09:37:21;0.70;;;0.70;;
5999;SDS011;3028;49.468;7.694;2023-05-10T09:39:31;2.03;;;0.82;;
5999;SDS011;3028;49.468;7.694;2023-05-10T09:41:34;1.85;;;0.88;;
5999;SDS011;3028;49.468;7.694;2023-05-10T09:43:38;1.63;;;1.00;;
5999;SDS011;3028;49.468;7.694;2023-05-10T09:45:41;0.93;;;0.90;;
5999;SDS011;3028;49.468;7.694;2023-05-10T09:47:43;0.60;;;0.60;;
5999;SDS011;3028;49.468;7.694;2023-05-10T09:49:49;0.60;;;0.60;;
5999;SDS011;3028;49.468;7.694;2023-05-10T09:52:05;1.73;;;0.70;;
5999;SDS011;3028;49.468;7.694;2023-05-10T09:56:17;9.60;;;1.60;;
5999;SDS011;3028;49.468;7.694;2023-05-10T09:58:35;3.35;;;0.93;;
5999;SDS011;3028;49.468;7.694;2023-05-10T10:00:40;1.98;;;0.50;;
5999;SDS011;3028;49.468;7.694;2023-05-10T10:02:43;0.60;;;0.60;;
5999;SDS011;3028;49.468;7.694;2023-05-10T10:04:48;1.35;;;0.80;;
5999;SDS011;3028;49.468;7.694;2023-05-10T10:06:58;1.08;;;0.60;;
5999;SDS011;3028;49.468;7.694;2023-05-10T10:09:02;1.35;;;0.90;;
5999;SDS011;3028;49.468;7.694;2023-05-10T10:11:06;0.77;;;0.68;;
5999;SDS011;3028;49.468;7.694;2023-05-10T10:13:08;1.08;;;0.60;;
5999;SDS011;3028;49.468;7.694;2023-05-10T10:15:10;0.93;;;0.70;;
5999;SDS011;3028;49.468;7.694;2023-05-10T10:17:13;3.30;;;1.75;;
5999;SDS011;3028;49.468;7.694;2023-05-10T10:19:15;9.07;;;0.85;;
5999;SDS011;3028;49.468;7.694;2023-05-10T10:21:17;1.33;;;0.80;;
5999;SDS011;3028;49.468;7.694;2023-05-10T10:23:22;1.70;;;0.82;;
5999;SDS011;3028;49.468;7.694;2023-05-10T10:25:27;2.33;;;1.15;;
5999;SDS011;3028;49.468;7.694;2023-05-10T10:32:01;2.25;;;0.57;;
5999;SDS011;3028;49.468;7.694;2023-05-10T10:34:09;1.50;;;0.70;;
5999;SDS011;3028;49.468;7.694;2023-05-10T10:36:15;1.58;;;0.63;;
5999;SDS011;3028;49.468;7.694;2023-05-10T10:38:17;0.77;;;0.65;;
5999;SDS011;3028;49.468;7.694;2023-05-10T10:40:22;2.15;;;0.98;;
5999;SDS011;3028;49.468;7.694;2023-05-10T10:42:43;0.95;;;0.55;;
5999;SDS011;3028;49.468;7.694;2023-05-10T10:44:49;1.85;;;0.70;;
5999;SDS011;3028;49.468;7.694;2023-05-10T10:49:26;1.42;;;0.70;;
5999;SDS011;3028;49.468;7.694;2023-05-10T10:51:29;3.33;;;0.80;;
5999;SDS011;3028;49.468;7.694;2023-05-10T10:53:33;1.65;;;0.98;;
5999;SDS011;3028;49.468;7.694;2023-05-10T10:55:44;5.00;;;1.25;;
5999;SDS011;3028;49.468;7.694;2023-05-10T11:02:42;2.70;;;0.90;;
5999;SDS011;3028;49.468;7.694;2023-05-10T11:04:58;3.42;;;0.93;;
5999;SDS011;3028;49.468;7.694;2023-05-10T11:07:16;1.30;;;0.73;;
5999;SDS011;3028;49.468;7.694;2023-05-10T11:09:19;2.22;;;0.77;;
5999;SDS011;3028;49.468;7.694;2023-05-10T11:11:22;2.45;;;0.80;;
5999;SDS011;3028;49.468;7.694;2023-05-10T11:13:32;1.45;;;0.80;;
5999;SDS011;3028;49.468;7.694;2023-05-10T11:15:47;1.30;;;0.70;;
5999;SDS011;3028;49.468;7.694;2023-05-10T11:17:51;3.05;;;0.80;;
5999;SDS011;3028;49.468;7.694;2023-05-10T11:20:28;5.05;;;0.68;;
5999;SDS011;3028;49.468;7.694;2023-05-10T11:22:28;2.20;;;1.25;;
5999;SDS011;3028;49.468;7.694;2023-05-10T11:24:55;0.63;;;0.60;;
5999;SDS011;3028;49.468;7.694;2023-05-10T11:26:58;1.45;;;0.77;;
5999;SDS011;3028;49.468;7.694;2023-05-10T11:29:00;2.72;;;1.92;;
5999;SDS011;3028;49.468;7.694;2023-05-10T11:31:06;1.25;;;0.73;;
5999;SDS011;3028;49.468;7.694;2023-05-10T11:33:09;1.13;;;0.60;;
5999;SDS011;3028;49.468;7.694;2023-05-10T11:35:15;1.33;;;0.90;;
5999;SDS011;3028;49.468;7.694;2023-05-10T11:37:18;1.00;;;0.55;;
5999;SDS011;3028;49.468;7.694;2023-05-10T11:39:21;2.97;;;1.27;;
5999;SDS011;3028;49.468;7.694;2023-05-10T11:41:29;0.85;;;0.30;;
5999;SDS011;3028;49.468;7.694;2023-05-10T11:43:31;2.03;;;0.70;;
5999;SDS011;3028;49.468;7.694;2023-05-10T11:45:34;1.70;;;0.60;;
5999;SDS011;3028;49.468;7.694;2023-05-10T11:47:36;2.05;;;0.68;;
5999;SDS011;3028;49.468;7.694;2023-05-10T11:49:38;2.78;;;0.70;;
5999;SDS011;3028;49.468;7.694;2023-05-10T11:51:40;3.42;;;0.80;;
5999;SDS011;3028;49.468;7.694;2023-05-10T11:53:43;1.13;;;0.63;;
5999;SDS011;3028;49.468;7.694;2023-05-10T11:55:45;2.78;;;1.30;;
5999;SDS011;3028;49.468;7.694;2023-05-10T11:57:47;1.40;;;0.60;;
5999;SDS011;3028;49.468;7.694;2023-05-10T11:59:53;1.23;;;0.60;;
5999;SDS011;3028;49.468;7.694;2023-05-10T12:02:14;1.50;;;0.50;;
5999;SDS011;3028;49.468;7.694;2023-05-10T12:04:16;2.03;;;0.50;;
5999;SDS011;3028;49.468;7.694;2023-05-10T12:06:18;1.85;;;0.60;;
5999;SDS011;3028;49.468;7.694;2023-05-10T12:08:25;0.30;;;0.30;;
5999;SDS011;3028;49.468;7.694;2023-05-10T12:10:28;0.77;;;0.50;;
5999;SDS011;3028;49.468;7.694;2023-05-10T12:12:39;1.85;;;0.50;;
5999;SDS011;3028;49.468;7.694;2023-05-10T12:14:51;0.32;;;0.30;;
5999;SDS011;3028;49.468;7.694;2023-05-10T12:16:53;1.60;;;0.57;;
5999;SDS011;3028;49.468;7.694;2023-05-10T12:18:58;0.98;;;0.55;;
5999;SDS011;3028;49.468;7.694;2023-05-10T12:21:02;0.98;;;0.40;;
5999;SDS011;3028;49.468;7.694;2023-05-10T12:23:05;0.55;;;0.45;;
5999;SDS011;3028;49.468;7.694;2023-05-10T12:25:10;2.63;;;0.70;;
5999;SDS011;3028;49.468;7.694;2023-05-10T12:27:12;1.60;;;0.40;;
5999;SDS011;3028;49.468;7.694;2023-05-10T12:29:17;1.70;;;0.70;;
5999;SDS011;3028;49.468;7.694;2023-05-10T12:31:20;1.23;;;0.70;;
5999;SDS011;3028;49.468;7.694;2023-05-10T12:33:22;2.03;;;0.50;;
5999;SDS011;3028;49.468;7.694;2023-05-10T12:35:24;1.17;;;0.65;;
5999;SDS011;3028;49.468;7.694;2023-05-10T12:37:27;2.65;;;1.05;;
5999;SDS011;3028;49.468;7.694;2023-05-10T12:39:44;1.42;;;0.40;;
5999;SDS011;3028;49.468;7.694;2023-05-10T12:41:47;1.05;;;0.50;;
5999;SDS011;3028;49.468;7.694;2023-05-10T12:43:49;0.57;;;0.50;;
5999;SDS011;3028;49.468;7.694;2023-05-10T12:45:50;1.35;;;0.50;;
5999;SDS011;3028;49.468;7.694;2023-05-10T12:47:53;0.43;;;0.43;;
5999;SDS011;3028;49.468;7.694;2023-05-10T12:49:54;0.45;;;0.40;;
5999;SDS011;3028;49.468;7.694;2023-05-10T12:52:01;1.33;;;0.50;;
5999;SDS011;3028;49.468;7.694;2023-05-10T12:54:03;1.75;;;0.60;;
5999;SDS011;3028;49.468;7.694;2023-05-10T12:56:05;2.35;;;0.50;;
5999;SDS011;3028;49.468;7.694;2023-05-10T12:58:07;2.05;;;0.50;;
5999;SDS011;3028;49.468;7.694;2023-05-10T13:00:09;3.50;;;0.70;;
5999;SDS011;3028;49.468;7.694;2023-05-10T13:02:11;1.88;;;0.70;;
5999;SDS011;3028;49.468;7.694;2023-05-10T13:04:13;0.80;;;0.45;;
5999;SDS011;3028;49.468;7.694;2023-05-10T13:06:15;0.40;;;0.40;;
5999;SDS011;3028;49.468;7.694;2023-05-10T13:08:16;2.28;;;0.50;;
5999;SDS011;3028;49.468;7.694;2023-05-10T13:10:18;3.40;;;2.35;;
5999;SDS011;3028;49.468;7.694;2023-05-10T13:12:20;1.02;;;0.50;;
5999;SDS011;3028;49.468;7.694;2023-05-10T13:14:22;1.52;;;0.32;;
5999;SDS011;3028;49.468;7.694;2023-05-10T13:16:24;0.47;;;0.40;;
5999;SDS011;3028;49.468;7.694;2023-05-10T13:18:27;0.95;;;0.50;;
5999;SDS011;3028;49.468;7.694;2023-05-10T13:20:29;1.65;;;0.38;;
5999;SDS011;3028;49.468;7.694;2023-05-10T13:22:31;1.00;;;0.50;;
5999;SDS011;3028;49.468;7.694;2023-05-10T13:24:40;1.38;;;0.68;;
5999;SDS011;3028;49.468;7.694;2023-05-10T13:26:42;0.77;;;0.50;;